createdAt,value
2023-01-30T00:00:35.738Z,31.73
2023-01-30T00:03:03.896Z,28.83
2023-01-30T00:05:31.945Z,31.67
2023-01-30T00:07:59.949Z,30.20
2023-01-30T00:10:29.815Z,31.03
2023-01-30T00:12:57.698Z,29.00
2023-01-30T00:15:25.689Z,29.43
2023-01-30T00:17:53.615Z,30.27
2023-01-30T00:20:21.667Z,32.63
2023-01-30T00:23:00.402Z,28.73
2023-01-30T00:25:31.512Z,30.37
2023-01-30T00:28:01.292Z,31.27
2023-01-30T00:30:29.862Z,32.73
2023-01-30T00:32:59.409Z,29.97
2023-01-30T00:35:29.418Z,33.53
2023-01-30T00:37:58.365Z,30.43
2023-01-30T00:40:27.292Z,31.43
2023-01-30T00:43:14.513Z,34.10
2023-01-30T00:46:02.078Z,33.33
2023-01-30T00:48:30.372Z,32.77
2023-01-30T00:50:58.265Z,33.13
2023-01-30T00:53:26.484Z,31.53
2023-01-30T00:55:55.860Z,34.43
2023-01-30T00:58:25.609Z,33.53
2023-01-30T01:00:53.712Z,32.93
2023-01-30T01:03:21.942Z,34.93
2023-01-30T01:05:50.177Z,30.63
2023-01-30T01:08:18.216Z,34.73
2023-01-30T01:10:46.155Z,32.27
2023-01-30T01:13:14.038Z,33.53
2023-01-30T01:15:43.335Z,35.60
2023-01-30T01:18:11.234Z,30.83
2023-01-30T01:20:39.280Z,34.97
2023-01-30T01:23:07.310Z,33.20
2023-01-30T01:25:35.329Z,35.03
2023-01-30T01:28:03.284Z,36.13
2023-01-30T01:30:31.226Z,35.87
2023-01-30T01:33:00.545Z,39.17
2023-01-30T01:35:28.616Z,29.57
2023-01-30T01:37:58.496Z,35.87
2023-01-30T01:40:46.908Z,32.90
2023-01-30T01:43:18.799Z,29.83
2023-01-30T01:45:50.818Z,30.70
2023-01-30T01:48:26.276Z,33.30
2023-01-30T01:50:58.272Z,30.40
2023-01-30T01:53:29.440Z,28.53
2023-01-30T01:56:00.972Z,29.40
2023-01-30T01:58:32.559Z,29.63
2023-01-30T02:01:01.947Z,28.60
2023-01-30T02:03:35.877Z,27.53
2023-01-30T02:06:05.445Z,26.57
2023-01-30T02:08:36.237Z,31.83
2023-01-30T02:11:09.357Z,28.07
2023-01-30T02:13:38.633Z,28.80
2023-01-30T02:16:08.803Z,28.73
2023-01-30T02:18:41.210Z,31.50
2023-01-30T02:21:47.441Z,27.40
2023-01-30T02:24:49.951Z,31.77
2023-01-30T02:28:03.233Z,30.87
2023-01-30T02:31:07.338Z,32.70
2023-01-30T02:33:49.862Z,29.67
2023-01-30T02:36:26.904Z,29.20
2023-01-30T02:39:03.457Z,28.33
2023-01-30T02:41:36.840Z,32.10
2023-01-30T02:44:12.696Z,27.57
2023-01-30T02:46:51.586Z,30.63
2023-01-30T02:49:25.239Z,32.83
2023-01-30T02:54:26.664Z,29.27
2023-01-30T02:56:58.605Z,30.10
2023-01-30T02:59:31.482Z,29.57
2023-01-30T03:02:29.948Z,27.50
2023-01-30T03:05:30.027Z,29.50
2023-01-30T03:08:15.241Z,29.73
2023-01-30T03:10:50.622Z,27.90
2023-01-30T03:13:27.170Z,27.97
2023-01-30T03:16:03.983Z,28.77
2023-01-30T03:18:33.473Z,28.17
2023-01-30T03:21:06.643Z,27.27
2023-01-30T03:23:34.917Z,28.07
2023-01-30T03:26:05.135Z,27.77
2023-01-30T03:28:36.167Z,29.40
2023-01-30T03:31:04.223Z,29.43
2023-01-30T03:33:33.589Z,28.00
2023-01-30T03:36:01.543Z,28.97
2023-01-30T03:38:29.621Z,26.60
2023-01-30T03:40:57.796Z,27.30
2023-01-30T03:43:25.767Z,29.63
2023-01-30T03:45:53.835Z,29.63
2023-01-30T03:48:21.799Z,31.13
2023-01-30T03:50:51.230Z,30.43
2023-01-30T03:53:19.341Z,29.00
2023-01-30T03:55:47.336Z,29.53
2023-01-30T03:58:15.369Z,28.17
2023-01-30T04:00:43.481Z,29.77
2023-01-30T04:03:11.500Z,31.80
2023-01-30T04:05:39.419Z,31.40
2023-01-30T04:08:08.707Z,29.80
2023-01-30T04:10:36.706Z,29.43
2023-01-30T04:13:07.258Z,27.90
2023-01-30T04:15:35.288Z,28.07
2023-01-30T04:18:03.251Z,27.03
2023-01-30T04:20:31.233Z,27.63
2023-01-30T04:23:02.262Z,26.97
2023-01-30T04:25:31.617Z,27.90
2023-01-30T04:28:02.384Z,27.33
2023-01-30T04:30:30.446Z,29.90
2023-01-30T04:32:58.461Z,28.87
2023-01-30T04:35:26.655Z,29.30
2023-01-30T04:37:54.657Z,31.17
2023-01-30T04:40:22.556Z,29.13
2023-01-30T04:42:51.858Z,31.60
2023-01-30T04:45:20.131Z,27.90
2023-01-30T04:47:48.268Z,28.00
2023-01-30T04:50:16.680Z,31.30
2023-01-30T04:52:47.474Z,28.43
2023-01-30T04:55:15.681Z,29.60
2023-01-30T04:57:43.842Z,31.90
2023-01-30T05:00:14.345Z,28.17
2023-01-30T05:02:42.315Z,27.30
2023-01-30T05:05:10.824Z,30.77
2023-01-30T05:07:38.876Z,29.43
2023-01-30T05:10:08.008Z,28.37
2023-01-30T05:12:36.069Z,27.30
2023-01-30T05:15:04.173Z,25.30
2023-01-30T05:17:33.581Z,25.47
2023-01-30T05:20:01.787Z,26.43
2023-01-30T05:22:29.731Z,26.30
2023-01-30T05:24:58.501Z,25.87
2023-01-30T05:27:26.572Z,26.83
2023-01-30T05:29:54.591Z,27.03
2023-01-30T05:32:22.651Z,24.03
2023-01-30T05:34:51.974Z,28.93
2023-01-30T05:37:19.931Z,24.87
2023-01-30T05:39:47.929Z,25.17
2023-01-30T05:42:17.140Z,26.87
2023-01-30T05:44:45.087Z,26.33
2023-01-30T05:47:13.066Z,27.10
2023-01-30T05:49:41.075Z,25.13
2023-01-30T05:52:10.434Z,25.20
2023-01-30T05:54:38.388Z,22.43
2023-01-30T05:57:06.393Z,23.83
2023-01-30T05:59:34.443Z,22.33
2023-01-30T06:02:02.593Z,22.63
2023-01-30T06:04:30.598Z,27.27
2023-01-30T06:07:04.038Z,23.00
2023-01-30T06:09:33.399Z,20.60
2023-01-30T06:12:01.354Z,22.80
2023-01-30T06:14:31.048Z,24.83
2023-01-30T06:17:00.771Z,23.60
2023-01-30T06:19:28.796Z,19.83
2023-01-30T06:21:56.804Z,22.97
2023-01-30T06:24:24.759Z,22.93
2023-01-30T06:26:54.101Z,21.37
2023-01-30T06:29:22.104Z,22.43
2023-01-30T06:31:52.949Z,19.93
2023-01-30T06:34:20.871Z,20.77
2023-01-30T06:36:50.683Z,21.63
2023-01-30T06:39:18.611Z,20.37
2023-01-30T06:41:46.627Z,19.23
2023-01-30T06:44:17.908Z,18.67
2023-01-30T06:46:45.909Z,18.77
2023-01-30T06:49:13.827Z,18.63
2023-01-30T06:51:41.865Z,18.87
2023-01-30T06:54:09.897Z,16.27
2023-01-30T06:56:37.842Z,18.17
2023-01-30T06:59:05.879Z,16.30
2023-01-30T07:01:35.446Z,16.00
2023-01-30T07:04:03.530Z,18.67
2023-01-30T07:06:31.653Z,17.20
2023-01-30T07:08:59.681Z,22.30
2023-01-30T07:11:27.761Z,19.87
2023-01-30T07:13:58.943Z,17.37
2023-01-30T07:16:29.372Z,19.63
2023-01-30T07:18:59.053Z,18.53
2023-01-30T07:21:27.516Z,20.50
2023-01-30T07:23:55.740Z,19.63
2023-01-30T07:26:23.766Z,17.97
2023-01-30T07:28:51.799Z,18.43
2023-01-30T07:31:19.815Z,19.10
2023-01-30T07:33:47.824Z,20.80
2023-01-30T07:36:17.211Z,16.57
2023-01-30T07:38:45.163Z,17.87
2023-01-30T07:41:13.201Z,18.17
2023-01-30T07:43:41.192Z,19.20
2023-01-30T07:46:09.647Z,18.13
2023-01-30T07:48:37.619Z,21.43
2023-01-30T07:51:05.570Z,21.43
2023-01-30T07:53:34.905Z,19.93
2023-01-30T07:56:08.262Z,20.10
2023-01-30T07:58:36.312Z,21.23
2023-01-30T08:01:04.452Z,23.03
2023-01-30T08:03:32.546Z,21.57
2023-01-30T08:06:00.646Z,17.63
2023-01-30T08:08:28.608Z,19.83
2023-01-30T08:10:57.901Z,20.23
2023-01-30T08:13:33.459Z,19.17
2023-01-30T08:16:02.701Z,19.93
2023-01-30T08:18:31.216Z,17.87
2023-01-30T08:21:04.798Z,17.33
2023-01-30T08:23:33.124Z,16.80
2023-01-30T08:26:04.440Z,16.37
2023-01-30T08:28:32.802Z,16.37
2023-01-30T08:31:01.627Z,16.20
2023-01-30T08:33:29.766Z,13.43
2023-01-30T08:35:58.074Z,16.87
2023-01-30T08:38:26.069Z,15.17
2023-01-30T08:40:54.182Z,15.43
2023-01-30T08:43:23.706Z,16.53
2023-01-30T08:45:54.729Z,13.93
2023-01-30T08:48:22.749Z,12.13
2023-01-30T08:50:52.958Z,13.67
2023-01-30T08:53:21.245Z,12.40
2023-01-30T08:55:52.313Z,13.60
2023-01-30T08:58:20.696Z,12.60
2023-01-30T09:00:50.619Z,12.67
2023-01-30T09:03:19.171Z,12.73
2023-01-30T09:05:48.303Z,13.17
2023-01-30T09:08:16.248Z,16.17
2023-01-30T09:10:45.891Z,13.13
2023-01-30T09:13:13.914Z,10.47
2023-01-30T09:15:43.825Z,10.93
2023-01-30T09:18:13.144Z,10.07
2023-01-30T09:20:41.101Z,11.83
2023-01-30T09:23:09.095Z,12.10
2023-01-30T09:25:37.738Z,9.00
2023-01-30T09:28:05.990Z,10.97
2023-01-30T09:30:37.040Z,8.53
2023-01-30T09:33:05.160Z,10.00
2023-01-30T09:35:34.485Z,8.73
2023-01-30T09:38:03.045Z,8.23
2023-01-30T09:40:33.652Z,8.53
2023-01-30T09:43:15.879Z,9.13
2023-01-30T09:45:59.970Z,8.33
2023-01-30T09:48:32.658Z,6.30
2023-01-30T09:51:22.892Z,16.57
2023-01-30T09:54:16.162Z,6.13
2023-01-30T09:56:44.483Z,7.43
2023-01-30T09:59:22.997Z,6.70
2023-01-30T10:02:00.114Z,5.60
2023-01-30T10:04:32.681Z,5.27
2023-01-30T10:07:16.367Z,5.30
2023-01-30T10:09:53.792Z,7.20
2023-01-30T10:12:35.097Z,5.87
2023-01-30T10:15:20.145Z,4.60
2023-01-30T10:18:03.944Z,8.07
2023-01-30T10:20:40.739Z,6.60
2023-01-30T10:23:30.023Z,7.77
2023-01-30T10:26:02.527Z,6.30
2023-01-30T10:28:33.923Z,6.27
2023-01-30T10:31:06.480Z,5.67
2023-01-30T10:33:37.918Z,5.37
2023-01-30T10:36:11.964Z,5.17
2023-01-30T10:38:48.161Z,3.27
2023-01-30T10:41:27.856Z,3.83
2023-01-30T10:44:03.137Z,2.90
2023-01-30T10:47:06.899Z,6.07
2023-01-30T10:49:41.581Z,2.47
2023-01-30T10:52:24.344Z,3.10
2023-01-30T10:55:02.591Z,2.23
2023-01-30T10:57:43.313Z,2.73
2023-01-30T11:00:21.377Z,2.73
2023-01-30T11:03:15.838Z,2.57
2023-01-30T11:05:50.395Z,2.57
2023-01-30T11:08:28.057Z,3.00
2023-01-30T11:10:59.232Z,3.27
2023-01-30T11:13:31.797Z,2.83
2023-01-30T11:16:01.890Z,2.73
2023-01-30T11:21:27.009Z,2.93
2023-01-30T11:24:05.680Z,5.07
2023-01-30T11:26:46.679Z,3.30
2023-01-30T11:29:27.513Z,3.00
2023-01-30T11:31:56.001Z,2.87
2023-01-30T11:34:25.190Z,2.97
2023-01-30T11:36:53.292Z,2.90
2023-01-30T11:39:24.278Z,2.23
2023-01-30T11:42:04.593Z,2.03
2023-01-30T11:44:35.142Z,2.10
2023-01-30T11:47:17.622Z,2.13
2023-01-30T11:49:58.876Z,2.40
2023-01-30T11:52:39.681Z,3.07
2023-01-30T11:55:14.220Z,3.57
2023-01-30T11:57:48.743Z,4.60
2023-01-30T12:00:20.610Z,3.30
2023-01-30T12:02:51.106Z,2.20
2023-01-30T12:05:26.781Z,2.77
2023-01-30T12:07:54.992Z,4.70
2023-01-30T12:10:32.610Z,3.00
2023-01-30T12:13:07.763Z,4.93
2023-01-30T12:15:38.750Z,2.70
2023-01-30T12:18:15.795Z,2.20
2023-01-30T12:20:54.288Z,3.53
2023-01-30T12:23:32.884Z,5.13
2023-01-30T12:26:06.411Z,3.87
2023-01-30T12:28:47.423Z,5.07
2023-01-30T12:31:23.249Z,3.00
2023-01-30T12:33:54.790Z,3.20
2023-01-30T12:36:35.942Z,7.10
2023-01-30T12:39:16.177Z,6.87
2023-01-30T12:42:08.118Z,3.03
2023-01-30T12:44:50.985Z,6.43
2023-01-30T12:48:02.283Z,3.53
2023-01-30T12:50:41.041Z,3.77
2023-01-30T12:53:30.957Z,2.83
2023-01-30T12:56:23.214Z,6.50
2023-01-30T12:58:56.535Z,3.70
2023-01-30T13:01:35.576Z,6.20
2023-01-30T13:04:15.191Z,4.57
2023-01-30T13:06:59.272Z,6.30
2023-01-30T13:09:40.577Z,7.53
2023-01-30T13:12:17.645Z,4.77
2023-01-30T13:14:54.294Z,5.43
2023-01-30T13:17:39.999Z,5.10
2023-01-30T13:20:20.429Z,5.47
2023-01-30T13:22:54.347Z,6.83
2023-01-30T13:25:29.050Z,5.03
2023-01-30T13:28:02.387Z,6.10
2023-01-30T13:30:32.105Z,7.60
2023-01-30T13:33:07.867Z,5.47
2023-01-30T13:35:42.560Z,7.60
2023-01-30T13:38:18.125Z,6.23
2023-01-30T13:40:47.732Z,5.57
2023-01-30T13:43:22.106Z,4.87
2023-01-30T13:45:51.682Z,5.13
2023-01-30T13:48:36.057Z,5.07
2023-01-30T13:51:20.746Z,5.23
2023-01-30T13:53:54.190Z,4.77
2023-01-30T13:56:41.422Z,6.53
2023-01-30T13:59:19.695Z,4.67
2023-01-30T14:02:10.974Z,5.43
2023-01-30T14:04:49.067Z,8.47
2023-01-30T14:07:23.511Z,7.33
2023-01-30T14:10:03.071Z,9.63
2023-01-30T14:12:37.466Z,13.07
2023-01-30T14:15:08.144Z,7.27
2023-01-30T14:17:36.318Z,4.93
2023-01-30T14:20:16.371Z,4.80
2023-01-30T14:22:52.856Z,6.60
2023-01-30T14:25:46.050Z,5.73
2023-01-30T14:28:44.706Z,9.60
2023-01-30T14:31:12.943Z,7.40
2023-01-30T14:33:53.799Z,7.03
2023-01-30T14:36:36.096Z,7.10
2023-01-30T14:39:41.566Z,7.67
2023-01-30T14:42:24.423Z,8.80
2023-01-30T14:45:05.366Z,6.67
2023-01-30T14:47:46.525Z,7.57
2023-01-30T14:50:21.704Z,7.00
2023-01-30T14:52:56.544Z,11.80
2023-01-30T14:55:29.413Z,7.17
2023-01-30T14:58:01.027Z,12.33
2023-01-30T15:00:32.406Z,11.57
2023-01-30T15:03:04.426Z,9.33
2023-01-30T15:05:35.661Z,16.53
2023-01-30T15:08:09.707Z,11.93
2023-01-30T15:11:00.885Z,9.77
2023-01-30T15:13:48.920Z,7.97
2023-01-30T15:16:39.584Z,12.07
2023-01-30T15:19:24.106Z,13.20
2023-01-30T15:22:04.877Z,17.97
2023-01-30T15:25:13.745Z,14.40
2023-01-30T15:27:56.687Z,14.73
2023-01-30T15:30:40.417Z,12.17
2023-01-30T15:33:19.919Z,12.93
2023-01-30T15:35:51.263Z,11.37
2023-01-30T15:38:28.829Z,11.90
2023-01-30T15:41:01.742Z,7.37
2023-01-30T15:44:10.435Z,13.73
2023-01-30T15:46:49.360Z,12.03
2023-01-30T15:49:33.720Z,12.87
2023-01-30T15:52:13.564Z,12.53
2023-01-30T15:54:55.540Z,12.50
2023-01-30T15:57:37.537Z,15.97
2023-01-30T16:00:09.335Z,10.57
2023-01-30T16:02:38.494Z,14.87
2023-01-30T16:05:16.501Z,9.77
2023-01-30T16:07:46.925Z,13.27
2023-01-30T16:10:18.418Z,18.73
2023-01-30T16:12:48.337Z,19.70
2023-01-30T16:15:19.844Z,10.70
2023-01-30T16:18:05.502Z,13.83
2023-01-30T16:20:55.296Z,15.93
2023-01-30T16:23:32.509Z,11.47
2023-01-30T16:26:00.820Z,17.63
2023-01-30T16:28:32.147Z,17.60
2023-01-30T16:31:02.276Z,16.30
2023-01-30T16:33:36.292Z,12.90
2023-01-30T16:36:05.893Z,15.63
2023-01-30T16:38:40.832Z,10.77
2023-01-30T16:41:30.722Z,8.70
2023-01-30T16:44:17.690Z,16.13
2023-01-30T16:46:56.652Z,15.13
2023-01-30T16:49:31.570Z,13.43
2023-01-30T16:52:06.335Z,15.10
2023-01-30T16:54:36.136Z,13.93
2023-01-30T16:57:05.075Z,19.17
2023-01-30T16:59:36.374Z,16.93
2023-01-30T17:02:08.183Z,15.10
2023-01-30T17:04:41.216Z,14.57
2023-01-30T17:07:30.830Z,18.60
2023-01-30T17:09:59.147Z,16.07
2023-01-30T17:12:44.624Z,13.93
2023-01-30T17:15:33.437Z,12.93
2023-01-30T17:18:01.933Z,14.07
2023-01-30T17:20:40.795Z,17.50
2023-01-30T17:23:11.059Z,11.33
2023-01-30T17:25:43.107Z,13.57
2023-01-30T17:28:17.901Z,14.77
2023-01-30T17:30:47.447Z,13.03
2023-01-30T17:33:15.421Z,15.63
2023-01-30T17:35:44.056Z,15.27
2023-01-30T17:38:13.089Z,14.13
2023-01-30T17:40:42.879Z,18.67
2023-01-30T17:43:13.176Z,15.63
2023-01-30T17:45:41.503Z,13.13
2023-01-30T17:48:13.104Z,14.17
2023-01-30T17:50:41.229Z,16.63
2023-01-30T17:53:09.299Z,12.87
2023-01-30T17:55:39.480Z,16.20
2023-01-30T17:58:07.498Z,13.77
2023-01-30T18:00:35.424Z,15.77
2023-01-30T18:03:03.560Z,12.60
2023-01-30T18:05:32.895Z,17.03
2023-01-30T18:08:01.725Z,18.53
2023-01-30T18:10:29.778Z,12.27
2023-01-30T18:12:57.723Z,16.57
2023-01-30T18:15:25.759Z,15.27
2023-01-30T18:17:57.443Z,11.83
2023-01-30T18:20:25.461Z,15.93
2023-01-30T18:22:54.830Z,21.17
2023-01-30T18:25:22.851Z,14.87
2023-01-30T18:27:50.958Z,16.53
2023-01-30T18:30:20.103Z,12.07
2023-01-30T18:32:53.247Z,14.70
2023-01-30T18:35:22.534Z,13.03
2023-01-30T18:37:50.911Z,17.00
2023-01-30T18:40:21.614Z,24.83
2023-01-30T18:42:49.902Z,15.23
2023-01-30T18:45:18.014Z,17.53
2023-01-30T18:47:45.932Z,21.93
2023-01-30T18:50:13.888Z,16.07
2023-01-30T18:52:41.798Z,13.17
2023-01-30T18:55:10.149Z,11.17
2023-01-30T18:57:39.483Z,12.97
2023-01-30T19:00:08.706Z,25.10
2023-01-30T19:02:36.740Z,18.10
2023-01-30T19:05:04.904Z,11.63
2023-01-30T19:07:32.853Z,14.37
2023-01-30T19:10:00.745Z,15.37
2023-01-30T19:12:46.355Z,17.70
2023-01-30T19:15:15.740Z,16.53
2023-01-30T19:17:43.679Z,10.27
2023-01-30T19:20:12.784Z,15.70
2023-01-30T19:22:40.919Z,10.57
2023-01-30T19:25:09.726Z,14.93
2023-01-30T19:27:38.329Z,16.40
2023-01-30T19:30:07.768Z,13.93
2023-01-30T19:32:37.166Z,15.80
2023-01-30T19:35:05.870Z,19.87
2023-01-30T19:37:33.853Z,9.67
2023-01-30T19:40:02.395Z,16.77
2023-01-30T19:42:30.374Z,17.23
2023-01-30T19:44:58.378Z,16.60
2023-01-30T19:47:26.315Z,13.70
2023-01-30T19:49:55.869Z,16.93
2023-01-30T19:52:24.595Z,11.03
2023-01-30T19:54:52.685Z,10.17
2023-01-30T19:57:21.070Z,12.07
2023-01-30T19:59:49.050Z,13.67
2023-01-30T20:02:17.148Z,15.07
2023-01-30T20:04:45.241Z,17.53
2023-01-30T20:07:14.672Z,14.10
2023-01-30T20:09:43.081Z,13.00
2023-01-30T20:12:14.245Z,14.80
2023-01-30T20:14:43.365Z,17.43
2023-01-30T20:17:12.918Z,17.47
2023-01-30T20:19:41.036Z,13.67
2023-01-30T20:22:09.265Z,14.53
2023-01-30T20:24:39.090Z,16.07
2023-01-30T20:27:07.289Z,15.50
2023-01-30T20:29:35.381Z,17.50
2023-01-30T20:32:03.579Z,16.33
2023-01-30T20:34:31.788Z,13.43
2023-01-30T20:37:00.209Z,17.07
2023-01-30T20:39:28.518Z,23.90
2023-01-30T20:41:58.241Z,16.00
2023-01-30T20:44:27.070Z,16.80
2023-01-30T20:46:56.843Z,18.37
2023-01-30T20:49:25.182Z,13.73
2023-01-30T20:54:22.742Z,21.60
2023-01-30T20:56:53.352Z,18.00
2023-01-30T20:59:27.160Z,16.23
2023-01-30T21:01:55.596Z,15.53
2023-01-30T21:04:25.240Z,14.93
2023-01-30T21:06:53.798Z,14.77
2023-01-30T21:09:24.201Z,15.53
2023-01-30T21:11:55.417Z,13.20
2023-01-30T21:14:26.570Z,12.90
2023-01-30T21:16:55.050Z,15.87
2023-01-30T21:19:23.257Z,15.37
2023-01-30T21:21:54.176Z,15.57
2023-01-30T21:24:23.995Z,24.20
2023-01-30T21:26:53.665Z,15.93
2023-01-30T21:29:26.060Z,14.13
2023-01-30T21:31:54.714Z,15.27
2023-01-30T21:34:40.342Z,16.23
2023-01-30T21:37:27.461Z,14.70
2023-01-30T21:40:13.093Z,16.23
2023-01-30T21:42:58.755Z,13.93
2023-01-30T21:45:33.839Z,14.97
2023-01-30T21:48:25.271Z,12.30
2023-01-30T21:50:53.279Z,11.13
2023-01-30T21:53:21.308Z,13.20
2023-01-30T21:55:51.100Z,14.80
2023-01-30T21:58:20.863Z,17.33
2023-01-30T22:00:50.427Z,13.93
2023-01-30T22:03:22.337Z,14.30
2023-01-30T22:05:50.427Z,16.93
2023-01-30T22:08:19.840Z,15.37
2023-01-30T22:10:47.922Z,13.87
2023-01-30T22:13:15.902Z,11.53
2023-01-30T22:15:44.182Z,13.97
2023-01-30T22:18:13.528Z,20.60
2023-01-30T22:20:41.592Z,13.83
2023-01-30T22:23:09.605Z,19.40
2023-01-30T22:25:37.579Z,13.90
2023-01-30T22:28:06.004Z,17.67
2023-01-30T22:30:34.345Z,12.90
2023-01-30T22:33:02.338Z,18.10
2023-01-30T22:35:31.661Z,21.53
2023-01-30T22:37:59.602Z,16.33
2023-01-30T22:40:27.636Z,19.80
2023-01-30T22:42:55.630Z,12.80
2023-01-30T22:45:24.747Z,17.80
2023-01-30T22:47:52.766Z,19.93
2023-01-30T22:50:20.845Z,14.27
2023-01-30T22:52:50.231Z,16.50
2023-01-30T22:55:18.687Z,20.57
2023-01-30T22:57:46.953Z,22.80
2023-01-30T23:00:15.604Z,25.37
2023-01-30T23:02:43.732Z,20.23
2023-01-30T23:05:12.297Z,12.23
2023-01-30T23:07:40.412Z,13.63
2023-01-30T23:10:11.216Z,17.20
2023-01-30T23:12:59.494Z,17.33
2023-01-30T23:15:27.490Z,22.13
2023-01-30T23:18:12.873Z,20.20
2023-01-30T23:20:43.593Z,15.77
2023-01-30T23:23:11.660Z,13.40
2023-01-30T23:25:43.149Z,18.97
2023-01-30T23:28:11.500Z,16.83
2023-01-30T23:30:40.308Z,17.07
2023-01-30T23:33:08.535Z,20.53
2023-01-30T23:35:36.809Z,15.40
2023-01-30T23:38:18.851Z,20.10
2023-01-30T23:40:49.199Z,21.57
2023-01-30T23:43:17.477Z,17.43
2023-01-30T23:45:45.479Z,18.03
2023-01-30T23:48:13.493Z,16.67
2023-01-30T23:50:42.156Z,17.13
2023-01-30T23:53:11.221Z,9.83
2023-01-30T23:55:39.793Z,12.97
2023-01-30T23:58:09.170Z,11.50
